Time;durP1;ratioP1;P1;durP2;ratioP2;P2;SDS_P1;SDS_P2;PMS_P1;PMS_P2;Temp;Humidity;BMP_temperature;BMP_pressure;BME280_temperature;BME280_humidity;BME280_pressure;Samples;Min_cycle;Max_cycle;Signal;HPM_P1;HPM_P2
2023/01/15 00:00:29;;;;;;;;;;;;;;;6.95;100.00;95860.50;5042254;28;19921;-74
2023/01/15 00:02:54;;;;;;;;;;;;;;;6.90;100.00;95855.34;5025812;28;19920;-73
2023/01/15 00:05:19;;;;;;;;;;;;;;;6.90;100.00;95847.19;5004016;28;19920;-73
2023/01/15 00:07:45;;;;;;;;;;;;;;;6.93;100.00;95840.97;5023678;28;19916;-73
2023/01/15 00:10:10;;;;;;;;;;;;;;;6.91;100.00;95835.13;5038822;28;19972;-74
2023/01/15 00:12:35;;;;;;;;;;;;;;;6.88;100.00;95842.09;5035529;28;19970;-74
2023/01/15 00:15:00;;;;;;;;;;;;;;;6.81;100.00;95831.09;5043370;28;19944;-73
2023/01/15 00:17:26;;;;;;;;;;;;;;;6.74;100.00;95835.63;5038521;28;19917;-72
2023/01/15 00:19:51;;;;;;;;;;;;;;;6.71;100.00;95834.41;5043712;28;19924;-74
2023/01/15 00:22:16;;;;;;;;;;;;;;;6.74;100.00;95828.25;5038052;28;19925;-74
2023/01/15 00:27:37;;;;;;;;;;;;;;;6.63;100.00;95813.69;5037582;28;20325;-74
2023/01/15 00:30:03;;;;;;;;;;;;;;;6.61;100.00;95815.94;5040718;28;19916;-75
2023/01/15 00:32:29;;;;;;;;;;;;;;;6.62;100.00;95814.81;5028088;28;19970;-74
2023/01/15 00:34:55;;;;;;;;;;;;;;;6.56;100.00;95811.59;5036516;28;19920;-74
2023/01/15 00:37:20;;;;;;;;;;;;;;;6.51;100.00;95801.78;5019055;28;20007;-73
2023/01/15 00:39:45;;;;;;;;;;;;;;;6.43;100.00;95789.22;5042749;28;19917;-74
2023/01/15 00:42:11;;;;;;;;;;;;;;;6.35;100.00;95795.69;5039834;28;19988;-74
2023/01/15 00:44:36;;;;;;;;;;;;;;;6.46;100.00;95788.53;5024656;28;19924;-74
2023/01/15 00:47:02;;;;;;;;;;;;;;;6.64;100.00;95788.78;5042488;28;20035;-72
2023/01/15 00:49:28;;;;;;;;;;;;;;;6.72;100.00;95788.91;5039388;28;19944;-74
2023/01/15 00:51:53;;;;;;;;;;;;;;;6.81;100.00;95778.59;5028690;28;19917;-73
2023/01/15 00:54:18;;;;;;;;;;;;;;;7.00;96.41;95796.75;5037393;28;20374;-73
2023/01/15 00:56:43;;;;;;;;;;;;;;;7.21;93.43;95794.38;5042519;28;19916;-74
2023/01/15 00:59:09;;;;;;;;;;;;;;;7.33;90.55;95792.56;5037127;28;19916;-73
2023/01/15 01:01:34;;;;;;;;;;;;;;;7.40;90.40;95790.75;5042948;28;19974;-74
2023/01/15 01:04:00;;;;;;;;;;;;;;;7.58;87.31;95796.44;5041988;28;19959;-73
2023/01/15 01:06:25;;;;;;;;;;;;;;;7.56;87.51;95804.22;5038820;28;20003;-73
2023/01/15 01:08:50;;;;;;;;;;;;;;;7.64;88.81;95808.59;5042866;28;20020;-73
2023/01/15 01:11:17;;;;;;;;;;;;;;;7.57;88.54;95789.41;5038103;28;19971;-73
2023/01/15 01:13:43;;;;;;;;;;;;;;;7.51;88.68;95793.63;5042346;28;19923;-73
2023/01/15 01:16:20;;;;;;;;;;;;;;;7.43;88.76;95797.41;5038279;28;19917;-73
2023/01/15 01:18:45;;;;;;;;;;;;;;;7.58;85.83;95796.44;5024471;28;19923;-74
2023/01/15 01:21:11;;;;;;;;;;;;;;;7.88;83.12;95798.38;5020240;28;19925;-74
2023/01/15 01:23:36;;;;;;;;;;;;;;;7.82;83.01;95802.59;5040662;28;20347;-73
2023/01/15 01:26:01;;;;;;;;;;;;;;;8.01;81.92;95796.19;5040979;28;19925;-73
2023/01/15 01:28:27;;;;;;;;;;;;;;;8.03;80.61;95782.97;5037752;28;19944;-73
2023/01/15 01:30:52;;;;;;;;;;;;;;;8.03;78.81;95786.50;5040425;28;19924;-74
2023/01/15 01:33:17;;;;;;;;;;;;;;;8.09;79.39;95780.72;5022484;28;19921;-74
2023/01/15 01:35:49;;;;;;;;;;;;;;;8.16;76.98;95780.78;5051490;28;19916;-74
2023/01/15 01:38:14;;;;;;;;;;;;;;;8.18;77.84;95775.75;5058102;28;19917;-75
2023/01/15 01:40:40;;;;;;;;;;;;;;;8.04;78.84;95776.34;5061829;28;19932;-74
2023/01/15 01:43:16;;;;;;;;;;;;;;;8.13;75.07;95762.44;5056343;28;20019;-75
2023/01/15 01:45:41;;;;;;;;;;;;;;;8.17;74.41;95763.25;5051638;28;19983;-74
2023/01/15 01:48:06;;;;;;;;;;;;;;;8.18;74.72;95778.47;5030412;28;20344;-75
2023/01/15 01:50:33;;;;;;;;;;;;;;;8.21;73.16;95781.22;5073297;28;19926;-75
2023/01/15 01:53:02;;;;;;;;;;;;;;;8.22;74.46;95782.78;5063984;28;19976;-74
2023/01/15 01:55:29;;;;;;;;;;;;;;;8.26;73.08;95771.91;5045409;28;19921;-74
2023/01/15 01:57:57;;;;;;;;;;;;;;;8.23;73.17;95768.00;5024242;28;20374;-73
2023/01/15 02:00:22;;;;;;;;;;;;;;;8.27;73.53;95768.03;5036361;28;20574;-73
2023/01/15 02:02:48;;;;;;;;;;;;;;;8.27;72.69;95778.19;5042262;28;19947;-73
2023/01/15 02:05:17;;;;;;;;;;;;;;;8.34;72.01;95749.00;5002705;28;19925;-73
2023/01/15 02:07:42;;;;;;;;;;;;;;;8.42;70.69;95756.13;5041218;28;20305;-73
2023/01/15 02:10:15;;;;;;;;;;;;;;;8.39;71.31;95748.69;5036819;28;19921;-72
2023/01/15 02:12:41;;;;;;;;;;;;;;;8.40;71.53;95752.19;5023762;28;20469;-72
2023/01/15 02:15:09;;;;;;;;;;;;;;;8.44;71.42;95752.25;5019094;28;20016;-74
2023/01/15 02:17:41;;;;;;;;;;;;;;;8.39;71.20;95739.69;5006584;28;19924;-74
2023/01/15 02:20:18;;;;;;;;;;;;;;;8.41;72.25;95740.13;5036482;28;19917;-74
2023/01/15 02:22:50;;;;;;;;;;;;;;;8.35;73.08;95728.75;5042374;28;19928;-74
2023/01/15 02:25:30;;;;;;;;;;;;;;;8.37;73.36;95710.06;5020365;28;19950;-74
2023/01/15 02:28:19;;;;;;;;;;;;;;;8.48;72.83;95703.94;5023784;28;20349;-74
2023/01/15 02:30:46;;;;;;;;;;;;;;;8.36;74.39;95707.72;5011500;28;19924;-73
2023/01/15 02:33:25;;;;;;;;;;;;;;;8.29;75.40;95711.16;5038484;28;20425;-73
2023/01/15 02:35:53;;;;;;;;;;;;;;;8.28;75.52;95697.88;5047496;28;19978;-73
2023/01/15 02:38:21;;;;;;;;;;;;;;;8.23;76.49;95702.53;5056276;28;19916;-73
2023/01/15 02:40:49;;;;;;;;;;;;;;;8.26;75.48;95690.06;5026786;28;19964;-73
2023/01/15 02:43:16;;;;;;;;;;;;;;;8.26;75.21;95689.28;5030057;28;19924;-73
2023/01/15 02:45:43;;;;;;;;;;;;;;;8.25;76.34;95672.16;5030207;28;19946;-73
2023/01/15 02:48:13;;;;;;;;;;;;;;;8.29;75.48;95678.41;5022601;28;19920;-73
2023/01/15 02:50:43;;;;;;;;;;;;;;;8.24;76.23;95686.94;5036152;28;20370;-74
2023/01/15 02:53:11;;;;;;;;;;;;;;;8.24;77.34;95681.50;5057803;28;19924;-73
2023/01/15 02:55:40;;;;;;;;;;;;;;;8.22;76.09;95690.03;5063083;28;19994;-73
2023/01/15 02:58:08;;;;;;;;;;;;;;;8.26;75.98;95678.38;5039530;28;19923;-73
2023/01/15 03:00:35;;;;;;;;;;;;;;;8.26;75.72;95664.75;5028775;28;19924;-74
2023/01/15 03:03:10;;;;;;;;;;;;;;;8.28;74.78;95657.75;5019155;28;19924;-73
2023/01/15 03:05:39;;;;;;;;;;;;;;;8.30;75.93;95662.81;5031773;28;19921;-73
2023/01/15 03:08:06;;;;;;;;;;;;;;;8.29;76.55;95664.78;5042740;28;19939;-75
2023/01/15 03:10:45;;;;;;;;;;;;;;;8.28;77.10;95657.75;5028737;28;20374;-74
2023/01/15 03:13:15;;;;;;;;;;;;;;;8.27;77.48;95658.16;5057068;28;19923;-74
2023/01/15 03:18:49;;;;;;;;;;;;;;;8.25;78.05;95658.50;5034442;28;20285;-73
2023/01/15 03:21:17;;;;;;;;;;;;;;;8.33;76.50;95651.94;5033600;28;19932;-73
2023/01/15 03:23:46;;;;;;;;;;;;;;;8.38;77.38;95667.19;5063129;28;19928;-72
2023/01/15 03:26:11;;;;;;;;;;;;;;;8.46;76.95;95668.84;5059496;28;19916;-72
2023/01/15 03:28:38;;;;;;;;;;;;;;;8.41;77.96;95663.72;5052934;28;19939;-72
2023/01/15 03:31:04;;;;;;;;;;;;;;;8.46;77.56;95660.66;5073341;28;19962;-75
2023/01/15 03:33:29;;;;;;;;;;;;;;;8.36;78.61;95653.16;5049024;28;20353;-73
2023/01/15 03:35:57;;;;;;;;;;;;;;;8.24;79.14;95644.06;5045445;28;20314;-72
2023/01/15 03:38:28;;;;;;;;;;;;;;;8.15;80.02;95629.19;5035611;28;19951;-72
2023/01/15 03:40:59;;;;;;;;;;;;;;;8.10;80.60;95635.00;5059903;28;19925;-73
2023/01/15 03:43:40;;;;;;;;;;;;;;;8.07;81.10;95631.09;5022291;28;19920;-73
2023/01/15 03:46:11;;;;;;;;;;;;;;;8.10;80.79;95633.03;5047775;28;20417;-73
2023/01/15 03:48:43;;;;;;;;;;;;;;;8.11;80.40;95625.66;5060677;28;20012;-74
2023/01/15 03:51:13;;;;;;;;;;;;;;;8.07;82.11;95620.19;5048520;28;19917;-73
2023/01/15 03:53:45;;;;;;;;;;;;;;;8.12;80.69;95614.38;5064372;28;19946;-73
2023/01/15 03:56:16;;;;;;;;;;;;;;;8.09;82.16;95611.63;5058753;28;19917;-73
2023/01/15 03:58:48;;;;;;;;;;;;;;;8.08;81.57;95608.09;5053514;28;19971;-73
2023/01/15 04:01:15;;;;;;;;;;;;;;;8.06;81.23;95601.47;5046199;28;19927;-74
2023/01/15 04:03:41;;;;;;;;;;;;;;;8.26;81.96;95608.22;5054132;28;19917;-73
2023/01/15 04:06:07;;;;;;;;;;;;;;;8.31;81.26;95610.63;5047549;28;20456;-73
2023/01/15 04:08:36;;;;;;;;;;;;;;;8.17;83.88;95619.47;5043846;28;19917;-72
2023/01/15 04:11:01;;;;;;;;;;;;;;;8.03;84.50;95608.44;5026412;28;19967;-72
2023/01/15 04:13:28;;;;;;;;;;;;;;;8.01;85.51;95610.75;5038205;28;19916;-73
2023/01/15 04:15:53;;;;;;;;;;;;;;;7.94;86.23;95605.25;5030895;28;20404;-73
2023/01/15 04:18:19;;;;;;;;;;;;;;;7.84;86.47;95610.22;5038764;28;19917;-73
2023/01/15 04:20:47;;;;;;;;;;;;;;;7.74;86.95;95623.75;5029314;28;21419;-73
2023/01/15 04:23:12;;;;;;;;;;;;;;;7.90;86.39;95626.25;5066747;28;19923;-73
2023/01/15 04:25:38;;;;;;;;;;;;;;;7.84;86.98;95618.41;5046426;28;19933;-72
2023/01/15 04:28:03;;;;;;;;;;;;;;;7.82;86.68;95618.00;5055049;28;19916;-74
2023/01/15 04:30:29;;;;;;;;;;;;;;;7.78;88.89;95627.31;5031933;28;19988;-73
2023/01/15 04:32:54;;;;;;;;;;;;;;;7.66;89.63;95628.34;5024900;28;19927;-73
2023/01/15 04:35:20;;;;;;;;;;;;;;;7.60;89.54;95614.28;5043527;28;19944;-73
2023/01/15 04:37:45;;;;;;;;;;;;;;;7.57;90.11;95636.03;5053997;28;19916;-73
2023/01/15 04:45:39;;;;;;;;;;;;;;;7.58;90.95;95635.69;5055838;28;19916;-71
2023/01/15 04:48:05;;;;;;;;;;;;;;;7.61;90.39;95628.69;5020284;28;19963;-72
2023/01/15 04:50:30;;;;;;;;;;;;;;;7.59;91.49;95615.44;5043853;28;20273;-74
2023/01/15 04:52:55;;;;;;;;;;;;;;;7.58;92.83;95616.59;5043226;28;19960;-75
2023/01/15 04:55:20;;;;;;;;;;;;;;;7.58;93.95;95607.63;5003279;28;21087;-74
2023/01/15 04:57:48;;;;;;;;;;;;;;;7.63;95.32;95599.13;5008821;28;19960;-74
2023/01/15 05:00:14;;;;;;;;;;;;;;;7.68;96.68;95617.84;5022390;28;19917;-73
2023/01/15 05:02:40;;;;;;;;;;;;;;;7.69;96.71;95611.25;5027605;28;19968;-74
2023/01/15 05:05:06;;;;;;;;;;;;;;;7.65;98.71;95608.50;5052685;28;20024;-73
2023/01/15 05:07:31;;;;;;;;;;;;;;;7.60;99.04;95606.09;5053786;28;20346;-76
2023/01/15 05:09:56;;;;;;;;;;;;;;;7.57;99.61;95600.63;5054020;28;19921;-74
2023/01/15 05:12:21;;;;;;;;;;;;;;;7.50;100.00;95595.88;5030252;28;19987;-75
2023/01/15 05:14:47;;;;;;;;;;;;;;;7.45;100.00;95607.09;5034482;28;20050;-74
2023/01/15 05:17:12;;;;;;;;;;;;;;;7.49;100.00;95605.22;5048523;28;19944;-74
2023/01/15 05:19:37;;;;;;;;;;;;;;;7.48;100.00;95617.25;5052454;28;19917;-75
2023/01/15 05:22:03;;;;;;;;;;;;;;;7.44;100.00;95621.91;5051010;28;19924;-73
2023/01/15 05:24:28;;;;;;;;;;;;;;;7.41;100.00;95617.19;5051491;28;19921;-75
2023/01/15 05:26:54;;;;;;;;;;;;;;;7.42;100.00;95613.31;5043351;28;20019;-74
2023/01/15 05:29:19;;;;;;;;;;;;;;;7.36;100.00;95626.47;5020179;28;19927;-74
2023/01/15 05:31:44;;;;;;;;;;;;;;;7.38;100.00;95629.63;5043726;28;19939;-73
2023/01/15 05:34:10;;;;;;;;;;;;;;;7.41;100.00;95614.47;5039650;28;19948;-74
2023/01/15 05:36:36;;;;;;;;;;;;;;;7.36;100.00;95604.66;5056500;28;19917;-73
2023/01/15 05:39:02;;;;;;;;;;;;;;;7.32;100.00;95606.56;5065954;28;19950;-74
2023/01/15 05:44:12;;;;;;;;;;;;;;;7.25;100.00;95609.22;5064751;28;20014;-75
2023/01/15 05:46:38;;;;;;;;;;;;;;;7.23;100.00;95611.53;5052123;28;19922;-75
2023/01/15 05:49:05;;;;;;;;;;;;;;;7.23;100.00;95614.25;5065893;28;20401;-75
2023/01/15 05:51:31;;;;;;;;;;;;;;;7.25;100.00;95617.38;5068893;28;20373;-75
2023/01/15 05:53:57;;;;;;;;;;;;;;;7.28;100.00;95609.25;5062568;28;19922;-74
2023/01/15 05:56:22;;;;;;;;;;;;;;;7.27;100.00;95607.72;5057130;28;19979;-74
2023/01/15 05:58:47;;;;;;;;;;;;;;;7.32;100.00;95601.13;5043229;28;20340;-74
2023/01/15 06:01:12;;;;;;;;;;;;;;;7.36;100.00;95612.06;5039055;28;19927;-74
2023/01/15 06:03:38;;;;;;;;;;;;;;;7.37;100.00;95613.66;5043979;28;20011;-74
2023/01/15 06:06:04;;;;;;;;;;;;;;;7.47;100.00;95605.59;5056139;28;19929;-75
2023/01/15 06:08:29;;;;;;;;;;;;;;;7.47;100.00;95610.22;5054883;28;19916;-73
2023/01/15 06:10:55;;;;;;;;;;;;;;;7.54;100.00;95610.31;5008319;28;19917;-73
2023/01/15 06:13:20;;;;;;;;;;;;;;;7.57;100.00;95612.28;5020696;28;19924;-73
2023/01/15 06:15:45;;;;;;;;;;;;;;;7.46;100.00;95619.59;5025077;28;20016;-73
2023/01/15 06:18:11;;;;;;;;;;;;;;;7.30;100.00;95611.63;5019852;28;19921;-74
2023/01/15 06:20:37;;;;;;;;;;;;;;;7.22;100.00;95609.94;5026489;28;19942;-73
2023/01/15 06:23:02;;;;;;;;;;;;;;;7.22;100.00;95599.06;5043652;28;19921;-78
2023/01/15 06:25:27;;;;;;;;;;;;;;;7.26;100.00;95605.34;5058195;28;20288;-75
2023/01/15 06:27:53;;;;;;;;;;;;;;;7.31;100.00;95598.78;5065947;28;19927;-75
2023/01/15 06:30:18;;;;;;;;;;;;;;;7.42;100.00;95589.56;5053596;28;19917;-75
2023/01/15 06:32:43;;;;;;;;;;;;;;;7.53;100.00;95592.41;5031000;28;19971;-75
2023/01/15 06:35:09;;;;;;;;;;;;;;;7.26;100.00;95591.72;5027942;28;19916;-75
2023/01/15 06:37:34;;;;;;;;;;;;;;;7.23;100.00;95595.97;5046606;28;19924;-75
2023/01/15 06:40:00;;;;;;;;;;;;;;;7.17;100.00;95575.69;5065522;28;19920;-75
2023/01/15 06:47:55;;;;;;;;;;;;;;;6.91;100.00;95581.19;5048236;28;19923;-76
2023/01/15 06:50:20;;;;;;;;;;;;;;;6.86;100.00;95585.81;5044193;28;19916;-76
2023/01/15 06:52:45;;;;;;;;;;;;;;;6.97;100.00;95576.97;5048489;28;19955;-75
2023/01/15 06:55:10;;;;;;;;;;;;;;;6.96;100.00;95572.69;5062240;28;19921;-76
2023/01/15 06:57:39;;;;;;;;;;;;;;;6.87;100.00;95570.25;5066661;28;19924;-75
2023/01/15 07:00:08;;;;;;;;;;;;;;;6.83;100.00;95567.50;5073806;28;19917;-75
2023/01/15 07:02:33;;;;;;;;;;;;;;;6.85;100.00;95564.41;5043217;28;20358;-75
2023/01/15 07:04:59;;;;;;;;;;;;;;;6.88;100.00;95566.41;5069185;28;20027;-74
2023/01/15 07:07:26;;;;;;;;;;;;;;;7.19;100.00;95565.19;5070831;28;19971;-76
2023/01/15 07:09:51;;;;;;;;;;;;;;;7.41;100.00;95563.47;5087982;28;19916;-76
2023/01/15 07:12:17;;;;;;;;;;;;;;;7.43;100.00;95557.66;5027479;28;19920;-76
2023/01/15 07:14:43;;;;;;;;;;;;;;;7.29;100.00;95555.56;5048173;28;20007;-75
2023/01/15 07:17:08;;;;;;;;;;;;;;;7.31;100.00;95547.03;5025354;28;19916;-74
2023/01/15 07:19:34;;;;;;;;;;;;;;;7.32;100.00;95552.09;5048157;28;19917;-76
2023/01/15 07:22:00;;;;;;;;;;;;;;;7.27;100.00;95552.44;5027377;28;19920;-75
2023/01/15 07:24:25;;;;;;;;;;;;;;;7.19;100.00;95542.63;5040113;28;20362;-77
2023/01/15 07:26:50;;;;;;;;;;;;;;;7.09;100.00;95549.50;5045934;28;19923;-74
2023/01/15 07:29:16;;;;;;;;;;;;;;;7.05;100.00;95544.03;5023497;28;19916;-76
2023/01/15 07:31:41;;;;;;;;;;;;;;;6.90;100.00;95539.59;5026671;28;19924;-76
2023/01/15 07:34:07;;;;;;;;;;;;;;;6.78;100.00;95528.94;5040559;28;19920;-76
2023/01/15 07:36:32;;;;;;;;;;;;;;;6.53;100.00;95518.50;5010798;28;19917;-76
2023/01/15 07:38:57;;;;;;;;;;;;;;;6.36;100.00;95511.69;5035803;28;19924;-75
2023/01/15 07:49:47;;;;;;;;;;;;;;;6.21;100.00;95497.13;5046575;28;19944;-75
2023/01/15 07:52:12;;;;;;;;;;;;;;;6.24;100.00;95501.03;5059644;28;19920;-75
2023/01/15 07:54:37;;;;;;;;;;;;;;;6.29;100.00;95495.28;5048266;28;19920;-75
2023/01/15 07:57:03;;;;;;;;;;;;;;;6.37;100.00;95486.06;5044842;28;19962;-76
2023/01/15 07:59:29;;;;;;;;;;;;;;;6.40;100.00;95488.03;5061618;28;20284;-75
2023/01/15 08:01:55;;;;;;;;;;;;;;;6.35;100.00;95480.19;5047078;28;19916;-75
2023/01/15 08:04:20;;;;;;;;;;;;;;;6.35;100.00;95493.81;5059968;28;19928;-76
2023/01/15 08:06:45;;;;;;;;;;;;;;;6.48;100.00;95495.16;5046423;28;19928;-75
2023/01/15 08:09:10;;;;;;;;;;;;;;;6.61;100.00;95482.09;5042432;28;19924;-75
2023/01/15 08:17:04;;;;;;;;;;;;;;;7.04;100.00;95482.56;5050942;28;20010;-77
2023/01/15 08:19:29;;;;;;;;;;;;;;;7.05;100.00;95491.53;5047278;28;20075;-77
2023/01/15 08:21:55;;;;;;;;;;;;;;;7.22;100.00;95488.19;5046590;28;19917;-77
2023/01/15 08:24:20;;;;;;;;;;;;;;;7.30;100.00;95489.06;5062631;28;19949;-75
2023/01/15 08:26:46;;;;;;;;;;;;;;;7.33;100.00;95501.13;5065861;28;19900;-75
2023/01/15 08:29:11;;;;;;;;;;;;;;;7.40;100.00;95495.75;5060788;28;19917;-75
2023/01/15 08:31:38;;;;;;;;;;;;;;;7.47;100.00;95507.50;5045940;28;20525;-75
2023/01/15 08:34:04;;;;;;;;;;;;;;;7.43;100.00;95514.84;5022225;28;19952;-76
2023/01/15 08:36:29;;;;;;;;;;;;;;;7.41;100.00;95540.91;5024522;28;19983;-75
2023/01/15 08:38:54;;;;;;;;;;;;;;;7.33;100.00;95544.69;5034343;28;19924;-75
2023/01/15 08:41:20;;;;;;;;;;;;;;;7.46;100.00;95565.09;5055778;28;20285;-75
2023/01/15 08:43:45;;;;;;;;;;;;;;;7.63;100.00;95560.97;5044649;28;19966;-77
2023/01/15 08:46:10;;;;;;;;;;;;;;;7.74;100.00;95580.94;5059117;28;19916;-77
2023/01/15 08:48:36;;;;;;;;;;;;;;;7.80;100.00;95581.38;5045519;28;19924;-76
2023/01/15 08:51:05;;;;;;;;;;;;;;;7.87;100.00;95580.63;5061103;28;20373;-77
2023/01/15 08:53:30;;;;;;;;;;;;;;;8.01;100.00;95570.66;5062339;28;19917;-77
2023/01/15 08:55:56;;;;;;;;;;;;;;;8.32;100.00;95574.00;5061176;28;19916;-76
2023/01/15 08:58:21;;;;;;;;;;;;;;;8.44;100.00;95569.41;5058728;28;20397;-76
2023/01/15 09:00:47;;;;;;;;;;;;;;;8.54;100.00;95591.31;5064422;28;20333;-75
2023/01/15 09:03:13;;;;;;;;;;;;;;;8.67;100.00;95597.25;5057836;28;20492;-75
2023/01/15 09:05:38;;;;;;;;;;;;;;;8.69;100.00;95603.09;5062441;28;19974;-75
2023/01/15 09:08:04;;;;;;;;;;;;;;;8.67;100.00;95610.88;5059116;28;19952;-76
2023/01/15 09:10:30;;;;;;;;;;;;;;;8.70;100.00;95623.00;5044888;28;20015;-76
2023/01/15 09:12:59;;;;;;;;;;;;;;;8.74;100.00;95619.13;5045141;28;20393;-75
2023/01/15 09:15:25;;;;;;;;;;;;;;;8.69;100.00;95640.53;5048504;28;20019;-75
2023/01/15 09:17:50;;;;;;;;;;;;;;;8.65;100.00;95639.75;5058341;28;20031;-75
2023/01/15 09:20:15;;;;;;;;;;;;;;;8.59;100.00;95631.13;5019598;28;19916;-75
2023/01/15 09:22:41;;;;;;;;;;;;;;;8.51;100.00;95638.47;5024456;28;20377;-76
2023/01/15 09:25:06;;;;;;;;;;;;;;;8.48;100.00;95644.69;5046012;28;19925;-74
2023/01/15 09:27:33;;;;;;;;;;;;;;;8.50;100.00;95647.84;5042803;28;19917;-75
2023/01/15 09:29:58;;;;;;;;;;;;;;;8.42;100.00;95652.44;5024587;28;19917;-75
2023/01/15 09:32:24;;;;;;;;;;;;;;;8.37;100.00;95647.31;5055010;28;20246;-76
2023/01/15 09:34:49;;;;;;;;;;;;;;;8.30;100.00;95660.91;5064251;28;19916;-76
2023/01/15 09:37:15;;;;;;;;;;;;;;;8.28;100.00;95659.69;5056786;28;19962;-76
2023/01/15 09:39:40;;;;;;;;;;;;;;;8.18;100.00;95658.44;5078989;28;20416;-76
2023/01/15 09:42:09;;;;;;;;;;;;;;;8.15;100.00;95684.53;5040783;28;19971;-74
2023/01/15 09:44:50;;;;;;;;;;;;;;;8.13;100.00;95710.63;5040035;28;19946;-75
2023/01/15 09:47:34;;;;;;;;;;;;;;;8.12;100.00;95701.66;5036839;28;20266;-75
2023/01/15 09:50:02;;;;;;;;;;;;;;;8.15;100.00;95752.72;5024661;28;19999;-75
2023/01/15 09:52:39;;;;;;;;;;;;;;;8.07;100.00;95775.63;5040058;28;19916;-73
2023/01/15 09:55:27;;;;;;;;;;;;;;;7.77;100.00;95762.81;5013064;28;19917;-75
2023/01/15 09:57:58;;;;;;;;;;;;;;;7.29;100.00;95765.28;5036462;28;20420;-76
2023/01/15 10:00:28;;;;;;;;;;;;;;;7.16;100.00;95748.38;5040907;28;20011;-76
2023/01/15 10:02:57;;;;;;;;;;;;;;;7.11;100.00;95765.03;5047122;28;19924;-76
2023/01/15 10:05:34;;;;;;;;;;;;;;;7.07;100.00;95770.41;5043102;28;20375;-77
2023/01/15 10:08:05;;;;;;;;;;;;;;;6.99;100.00;95774.22;5048794;28;19960;-76
2023/01/15 10:10:34;;;;;;;;;;;;;;;6.87;100.00;95785.28;5020469;28;19921;-76
2023/01/15 10:13:05;;;;;;;;;;;;;;;6.58;100.00;95806.59;5067809;28;19916;-77
2023/01/15 10:15:48;;;;;;;;;;;;;;;6.50;100.00;95808.41;5029958;28;19921;-77
2023/01/15 10:18:19;;;;;;;;;;;;;;;6.57;100.00;95796.88;5042871;28;19928;-77
2023/01/15 10:21:09;;;;;;;;;;;;;;;6.60;100.00;95806.22;5018670;28;20309;-76
2023/01/15 10:24:04;;;;;;;;;;;;;;;6.43;100.00;95807.50;5028189;28;20022;-76
2023/01/15 10:26:39;;;;;;;;;;;;;;;6.44;100.00;95823.44;4989415;28;19927;-78
2023/01/15 10:29:16;;;;;;;;;;;;;;;6.32;100.00;95827.13;5041232;28;19916;-75
2023/01/15 10:31:52;;;;;;;;;;;;;;;6.39;100.00;95837.34;5046368;28;20023;-74
2023/01/15 10:34:36;;;;;;;;;;;;;;;6.38;100.00;95835.75;5006143;28;19920;-74
2023/01/15 10:37:14;;;;;;;;;;;;;;;6.32;100.00;95851.59;5021252;28;19917;-75
2023/01/15 10:39:59;;;;;;;;;;;;;;;6.32;100.00;95862.47;5072081;28;20003;-73
2023/01/15 10:42:27;;;;;;;;;;;;;;;6.28;100.00;95872.50;5023116;28;20337;-74
2023/01/15 10:44:55;;;;;;;;;;;;;;;6.26;100.00;95868.56;5044992;28;19944;-74
2023/01/15 10:47:25;;;;;;;;;;;;;;;6.24;100.00;95879.78;5022743;28;19925;-74
2023/01/15 10:49:50;;;;;;;;;;;;;;;6.23;100.00;95880.94;5044261;28;19920;-74
2023/01/15 10:52:16;;;;;;;;;;;;;;;6.16;100.00;95888.16;5041095;28;19924;-75
2023/01/15 10:54:45;;;;;;;;;;;;;;;6.09;100.00;95899.69;5045160;28;20282;-75
2023/01/15 10:57:14;;;;;;;;;;;;;;;6.05;100.00;95907.78;5040962;28;20325;-74
2023/01/15 11:00:06;;;;;;;;;;;;;;;5.92;100.00;95904.38;5044770;28;19917;-76
2023/01/15 11:02:36;;;;;;;;;;;;;;;5.93;100.00;95914.06;5041084;28;19916;-75
2023/01/15 11:05:02;;;;;;;;;;;;;;;5.94;100.00;95923.81;5043605;28;19995;-76
2023/01/15 11:07:35;;;;;;;;;;;;;;;5.85;100.00;95946.88;5042724;28;20317;-75
2023/01/15 11:10:03;;;;;;;;;;;;;;;5.89;100.00;95964.09;5045050;28;19960;-74
2023/01/15 11:20:46;;;;;;;;;;;;;;;5.24;100.00;95972.59;5044852;28;19921;-74
2023/01/15 11:23:14;;;;;;;;;;;;;;;5.00;100.00;95987.13;5006142;28;19948;-74
2023/01/15 11:25:46;;;;;;;;;;;;;;;4.87;100.00;95976.31;5045264;28;20366;-74
2023/01/15 11:28:14;;;;;;;;;;;;;;;4.62;100.00;95977.56;5039045;28;19921;-74
2023/01/15 11:30:39;;;;;;;;;;;;;;;4.62;100.00;95989.22;5044991;28;19952;-74
2023/01/15 11:33:06;;;;;;;;;;;;;;;4.66;100.00;95992.81;5022359;28;20014;-74
2023/01/15 11:35:32;;;;;;;;;;;;;;;4.53;100.00;96000.19;5045801;28;20070;-73
2023/01/15 11:38:02;;;;;;;;;;;;;;;4.39;100.00;96007.94;5034325;28;19977;-73
2023/01/15 11:40:27;;;;;;;;;;;;;;;4.35;100.00;96009.75;5034522;28;20376;-74
2023/01/15 11:51:26;;;;;;;;;;;;;;;4.08;100.00;96036.44;5058914;28;19917;-75
2023/01/15 11:53:56;;;;;;;;;;;;;;;3.94;100.00;96044.13;5048718;28;19959;-75
2023/01/15 11:56:24;;;;;;;;;;;;;;;3.88;100.00;96051.69;5051300;28;20455;-74
2023/01/15 11:58:53;;;;;;;;;;;;;;;3.79;100.00;96045.59;5051708;28;19926;-75
2023/01/15 12:01:31;;;;;;;;;;;;;;;3.71;100.00;96058.16;5039921;28;19921;-76
2023/01/15 12:03:57;;;;;;;;;;;;;;;3.79;100.00;96070.00;5044372;28;19921;-75
2023/01/15 12:06:25;;;;;;;;;;;;;;;3.69;100.00;96071.22;5022140;28;20365;-74
2023/01/15 12:09:04;;;;;;;;;;;;;;;3.53;100.00;96054.03;5009504;28;19917;-75
2023/01/15 12:11:36;;;;;;;;;;;;;;;3.40;100.00;96093.84;5048616;28;19917;-74
2023/01/15 12:14:05;;;;;;;;;;;;;;;3.40;100.00;96089.25;5037136;28;20408;-74
2023/01/15 12:16:44;;;;;;;;;;;;;;;3.55;100.00;96100.56;5055170;28;19917;-74
2023/01/15 12:19:15;;;;;;;;;;;;;;;3.43;100.00;96107.50;5045321;28;19921;-74
2023/01/15 12:21:41;;;;;;;;;;;;;;;3.40;100.00;96110.09;5048309;28;19924;-74
2023/01/15 12:24:15;;;;;;;;;;;;;;;3.33;100.00;96113.34;5038850;28;19924;-73
2023/01/15 12:26:58;;;;;;;;;;;;;;;3.22;100.00;96123.00;5043034;28;19936;-75
2023/01/15 12:29:39;;;;;;;;;;;;;;;3.19;100.00;96115.56;5020415;28;19917;-73
2023/01/15 12:32:10;;;;;;;;;;;;;;;3.11;100.00;96122.63;5038667;28;19964;-77
2023/01/15 12:34:52;;;;;;;;;;;;;;;3.03;100.00;96126.19;5044135;28;19928;-74
2023/01/15 12:37:22;;;;;;;;;;;;;;;3.10;100.00;96126.47;5038691;28;19921;-74
2023/01/15 12:40:02;;;;;;;;;;;;;;;3.12;100.00;96132.31;5031492;28;19920;-74
2023/01/15 12:45:22;;;;;;;;;;;;;;;2.97;100.00;96139.16;5058601;28;19927;-74
2023/01/15 12:47:53;;;;;;;;;;;;;;;2.93;100.00;96140.13;5063663;28;19955;-73
2023/01/15 12:50:21;;;;;;;;;;;;;;;2.98;100.00;96146.13;5058131;28;19920;-74
2023/01/15 12:52:49;;;;;;;;;;;;;;;2.94;100.00;96156.03;5061708;28;20297;-75
2023/01/15 12:55:17;;;;;;;;;;;;;;;2.85;100.00;96158.78;5059422;28;20393;-74
2023/01/15 12:57:48;;;;;;;;;;;;;;;2.81;100.00;96166.00;5063037;28;19963;-74
2023/01/15 13:00:17;;;;;;;;;;;;;;;2.79;100.00;96186.34;5058271;28;20384;-74
2023/01/15 13:02:45;;;;;;;;;;;;;;;2.85;100.00;96179.66;5045134;28;20365;-74
2023/01/15 13:05:18;;;;;;;;;;;;;;;2.80;100.00;96186.03;5033007;28;20437;-74
2023/01/15 13:07:49;;;;;;;;;;;;;;;2.81;100.00;96174.09;5030526;28;19967;-73
2023/01/15 13:10:14;;;;;;;;;;;;;;;2.64;100.00;96182.31;5025091;28;19917;-74
2023/01/15 13:12:40;;;;;;;;;;;;;;;2.70;100.00;96183.69;5062562;28;19979;-74
2023/01/15 13:15:05;;;;;;;;;;;;;;;2.80;100.00;96191.44;5053136;28;19917;-74
2023/01/15 13:17:37;;;;;;;;;;;;;;;2.84;100.00;96184.25;5042394;28;19996;-74
2023/01/15 13:20:11;;;;;;;;;;;;;;;2.81;100.00;96182.22;5006371;28;19923;-75
2023/01/15 13:22:41;;;;;;;;;;;;;;;2.79;100.00;96202.59;5043282;28;19995;-74
2023/01/15 13:25:17;;;;;;;;;;;;;;;2.71;100.00;96200.75;5047043;28;20011;-75
2023/01/15 13:27:50;;;;;;;;;;;;;;;2.81;100.00;96206.56;5044675;28;19924;-75
2023/01/15 13:30:16;;;;;;;;;;;;;;;2.89;100.00;96213.03;5032272;28;19924;-75
2023/01/15 13:32:44;;;;;;;;;;;;;;;2.72;100.00;96203.13;5007679;28;19923;-76
2023/01/15 13:35:12;;;;;;;;;;;;;;;2.75;100.00;96197.03;5021042;28;19928;-77
2023/01/15 13:37:44;;;;;;;;;;;;;;;2.73;100.00;96209.31;5042863;28;19956;-75
2023/01/15 13:40:20;;;;;;;;;;;;;;;2.70;100.00;96216.16;5039692;28;19955;-75
2023/01/15 13:42:46;;;;;;;;;;;;;;;2.66;100.00;96226.84;5035556;28;19989;-75
2023/01/15 13:45:17;;;;;;;;;;;;;;;2.71;100.00;96233.19;5056138;28;19928;-74
2023/01/15 13:47:48;;;;;;;;;;;;;;;2.67;100.00;96228.44;5062986;28;19967;-74